sensor_id;sensor_type;location;lat;lon;timestamp;pressure;altitude;pressure_sealevel;temperature;humidity
27685;BME280;46113;50.130;8.526;2022-10-17T04:16:12;100605.31;;;9.81;88.82
27685;BME280;46113;50.130;8.526;2022-10-17T04:18:51;100599.41;;;9.73;88.62
27685;BME280;46113;50.130;8.526;2022-10-17T04:21:18;100605.44;;;9.78;88.37
27685;BME280;46113;50.130;8.526;2022-10-17T04:23:47;100598.34;;;9.79;88.46
27685;BME280;46113;50.130;8.526;2022-10-17T04:26:27;100600.94;;;9.80;87.87
27685;BME280;46113;50.130;8.526;2022-10-17T04:28:53;100604.44;;;9.82;87.98
27685;BME280;46113;50.130;8.526;2022-10-17T04:31:20;100599.00;;;9.86;88.43
27685;BME280;46113;50.130;8.526;2022-10-17T04:34:13;100598.16;;;9.85;87.96
27685;BME280;46113;50.130;8.526;2022-10-17T04:36:39;100613.06;;;9.88;88.25
27685;BME280;46113;50.130;8.526;2022-10-17T04:39:06;100608.63;;;9.88;87.91
27685;BME280;46113;50.130;8.526;2022-10-17T04:41:34;100616.50;;;9.90;88.08
27685;BME280;46113;50.130;8.526;2022-10-17T04:44:01;100614.81;;;9.87;87.46
27685;BME280;46113;50.130;8.526;2022-10-17T04:46:33;100622.81;;;9.86;86.96
27685;BME280;46113;50.130;8.526;2022-10-17T04:49:00;100619.38;;;9.84;87.06
27685;BME280;46113;50.130;8.526;2022-10-17T04:51:27;100623.91;;;9.80;86.97
27685;BME280;46113;50.130;8.526;2022-10-17T04:54:15;100618.03;;;9.68;86.18
27685;BME280;46113;50.130;8.526;2022-10-17T04:56:45;100623.38;;;9.67;86.60
27685;BME280;46113;50.130;8.526;2022-10-17T04:59:12;100631.28;;;9.67;86.82
27685;BME280;46113;50.130;8.526;2022-10-17T05:01:41;100625.16;;;9.66;86.87
27685;BME280;46113;50.130;8.526;2022-10-17T05:04:08;100628.81;;;9.62;87.33
27685;BME280;46113;50.130;8.526;2022-10-17T05:06:36;100623.44;;;9.65;87.95
27685;BME280;46113;50.130;8.526;2022-10-17T05:09:26;100626.00;;;9.67;88.22
27685;BME280;46113;50.130;8.526;2022-10-17T05:11:53;100631.22;;;9.70;88.51
27685;BME280;46113;50.130;8.526;2022-10-17T05:14:23;100631.25;;;9.68;88.74
27685;BME280;46113;50.130;8.526;2022-10-17T05:16:52;100630.44;;;9.66;88.51
27685;BME280;46113;50.130;8.526;2022-10-17T05:19:20;100630.53;;;9.63;88.68
27685;BME280;46113;50.130;8.526;2022-10-17T05:21:49;100619.38;;;9.55;88.73
27685;BME280;46113;50.130;8.526;2022-10-17T05:24:15;100622.97;;;9.52;89.76
27685;BME280;46113;50.130;8.526;2022-10-17T05:26:42;100615.94;;;9.51;89.83
27685;BME280;46113;50.130;8.526;2022-10-17T05:29:34;100612.53;;;9.48;90.07
27685;BME280;46113;50.130;8.526;2022-10-17T05:32:11;100625.69;;;9.49;89.66
27685;BME280;46113;50.130;8.526;2022-10-17T05:34:38;100627.66;;;9.42;89.88
27685;BME280;46113;50.130;8.526;2022-10-17T05:37:04;100634.53;;;9.48;89.14
27685;BME280;46113;50.130;8.526;2022-10-17T05:39:32;100647.03;;;9.43;91.44
27685;BME280;46113;50.130;8.526;2022-10-17T05:42:00;100639.63;;;9.54;90.89
27685;BME280;46113;50.130;8.526;2022-10-17T05:44:27;100639.72;;;9.51;91.26
27685;BME280;46113;50.130;8.526;2022-10-17T05:46:57;100643.28;;;9.50;91.02
27685;BME280;46113;50.130;8.526;2022-10-17T05:49:26;100634.25;;;9.58;90.96
27685;BME280;46113;50.130;8.526;2022-10-17T05:52:21;100634.19;;;9.59;91.35
27685;BME280;46113;50.130;8.526;2022-10-17T05:55:33;100626.97;;;9.64;90.80
27685;BME280;46113;50.130;8.526;2022-10-17T05:58:00;100636.56;;;9.67;90.45
27685;BME280;46113;50.130;8.526;2022-10-17T06:00:32;100637.41;;;9.69;90.03
27685;BME280;46113;50.130;8.526;2022-10-17T06:02:59;100633.13;;;9.65;91.21
27685;BME280;46113;50.130;8.526;2022-10-17T06:05:25;100632.84;;;9.74;90.46
27685;BME280;46113;50.130;8.526;2022-10-17T06:07:52;100639.84;;;9.77;90.14
27685;BME280;46113;50.130;8.526;2022-10-17T06:10:25;100636.50;;;9.70;89.75
27685;BME280;46113;50.130;8.526;2022-10-17T06:12:54;100638.13;;;9.76;90.03
27685;BME280;46113;50.130;8.526;2022-10-17T06:15:22;100636.69;;;9.64;91.59
27685;BME280;46113;50.130;8.526;2022-10-17T06:17:55;100640.91;;;9.69;91.57
27685;BME280;46113;50.130;8.526;2022-10-17T06:20:21;100643.22;;;9.80;91.48
27685;BME280;46113;50.130;8.526;2022-10-17T06:26:32;100659.50;;;9.95;91.53
27685;BME280;46113;50.130;8.526;2022-10-17T06:29:05;100660.31;;;9.97;91.49
27685;BME280;46113;50.130;8.526;2022-10-17T06:31:41;100662.78;;;10.03;91.32
27685;BME280;46113;50.130;8.526;2022-10-17T06:34:07;100666.16;;;10.07;91.36
27685;BME280;46113;50.130;8.526;2022-10-17T06:36:34;100667.72;;;10.13;90.71
27685;BME280;46113;50.130;8.526;2022-10-17T06:39:02;100657.88;;;10.18;90.77
27685;BME280;46113;50.130;8.526;2022-10-17T06:41:50;100664.25;;;10.12;89.70
27685;BME280;46113;50.130;8.526;2022-10-17T06:44:18;100672.22;;;10.11;89.23
27685;BME280;46113;50.130;8.526;2022-10-17T06:46:55;100669.66;;;10.07;89.31
27685;BME280;46113;50.130;8.526;2022-10-17T06:49:21;100673.19;;;10.08;89.50
27685;BME280;46113;50.130;8.526;2022-10-17T06:52:17;100681.13;;;10.08;89.34
27685;BME280;46113;50.130;8.526;2022-10-17T06:54:57;100681.81;;;10.13;89.60
27685;BME280;46113;50.130;8.526;2022-10-17T06:57:54;100683.53;;;10.14;89.94
27685;BME280;46113;50.130;8.526;2022-10-17T07:01:06;100689.41;;;10.24;90.33
27685;BME280;46113;50.130;8.526;2022-10-17T07:03:33;100684.66;;;10.34;90.50
27685;BME280;46113;50.130;8.526;2022-10-17T07:06:00;100688.00;;;10.39;90.82
27685;BME280;46113;50.130;8.526;2022-10-17T07:08:28;100690.44;;;10.45;91.06
27685;BME280;46113;50.130;8.526;2022-10-17T07:10:55;100684.16;;;10.48;90.84
27685;BME280;46113;50.130;8.526;2022-10-17T07:13:49;100697.53;;;10.45;90.84
27685;BME280;46113;50.130;8.526;2022-10-17T07:16:44;100695.66;;;10.47;91.35
27685;BME280;46113;50.130;8.526;2022-10-17T07:19:26;100703.47;;;10.52;90.88
27685;BME280;46113;50.130;8.526;2022-10-17T07:21:53;100697.16;;;10.56;91.22
27685;BME280;46113;50.130;8.526;2022-10-17T07:24:20;100702.97;;;10.66;91.50
27685;BME280;46113;50.130;8.526;2022-10-17T07:26:52;100704.59;;;10.70;91.79
27685;BME280;46113;50.130;8.526;2022-10-17T07:29:26;100711.63;;;10.71;92.13
27685;BME280;46113;50.130;8.526;2022-10-17T07:32:15;100723.78;;;10.77;91.62
27685;BME280;46113;50.130;8.526;2022-10-17T07:34:41;100728.03;;;10.81;91.74
27685;BME280;46113;50.130;8.526;2022-10-17T07:37:11;100722.63;;;10.84;91.60
27685;BME280;46113;50.130;8.526;2022-10-17T07:39:42;100731.28;;;10.89;91.55
27685;BME280;46113;50.130;8.526;2022-10-17T07:42:15;100732.81;;;10.96;91.22
27685;BME280;46113;50.130;8.526;2022-10-17T07:44:42;100737.88;;;11.03;91.64
27685;BME280;46113;50.130;8.526;2022-10-17T07:47:42;100729.44;;;11.17;92.03
27685;BME280;46113;50.130;8.526;2022-10-17T07:50:12;100727.38;;;11.25;91.79
27685;BME280;46113;50.130;8.526;2022-10-17T07:52:39;100728.91;;;11.31;91.42
27685;BME280;46113;50.130;8.526;2022-10-17T07:55:08;100730.81;;;11.27;91.00
27685;BME280;46113;50.130;8.526;2022-10-17T07:57:35;100725.66;;;11.46;90.35
27685;BME280;46113;50.130;8.526;2022-10-17T08:00:01;100734.88;;;11.60;89.83
27685;BME280;46113;50.130;8.526;2022-10-17T08:02:38;100729.38;;;11.64;90.01
27685;BME280;46113;50.130;8.526;2022-10-17T08:05:05;100738.31;;;11.62;89.81
27685;BME280;46113;50.130;8.526;2022-10-17T08:07:31;100740.00;;;11.64;88.68
27685;BME280;46113;50.130;8.526;2022-10-17T08:10:16;100727.06;;;11.79;88.12
27685;BME280;46113;50.130;8.526;2022-10-17T08:12:46;100735.16;;;11.98;86.70
27685;BME280;46113;50.130;8.526;2022-10-17T08:15:13;100728.78;;;12.02;86.03
27685;BME280;46113;50.130;8.526;2022-10-17T08:17:40;100727.75;;;12.06;85.87
27685;BME280;46113;50.130;8.526;2022-10-17T08:20:08;100725.28;;;12.24;85.24
27685;BME280;46113;50.130;8.526;2022-10-17T08:22:35;100727.56;;;12.33;84.19
27685;BME280;46113;50.130;8.526;2022-10-17T08:25:02;100721.19;;;12.38;83.76
27685;BME280;46113;50.130;8.526;2022-10-17T08:27:36;100719.28;;;12.41;83.14
27685;BME280;46113;50.130;8.526;2022-10-17T08:30:04;100724.38;;;12.46;83.36
27685;BME280;46113;50.130;8.526;2022-10-17T08:32:49;100735.88;;;12.46;83.90
27685;BME280;46113;50.130;8.526;2022-10-17T08:35:28;100730.06;;;12.37;83.80
27685;BME280;46113;50.130;8.526;2022-10-17T08:37:59;100730.47;;;12.48;84.35
27685;BME280;46113;50.130;8.526;2022-10-17T08:47:10;100727.91;;;12.67;83.18
27685;BME280;46113;50.130;8.526;2022-10-17T08:49:51;100735.22;;;12.62;83.25
27685;BME280;46113;50.130;8.526;2022-10-17T08:52:47;100736.78;;;12.45;83.66
27685;BME280;46113;50.130;8.526;2022-10-17T08:55:33;100724.44;;;12.65;82.77
27685;BME280;46113;50.130;8.526;2022-10-17T08:58:28;100725.69;;;12.77;82.96
27685;BME280;46113;50.130;8.526;2022-10-17T09:01:02;100730.06;;;12.78;83.23
27685;BME280;46113;50.130;8.526;2022-10-17T09:06:34;100727.66;;;12.93;82.46
27685;BME280;46113;50.130;8.526;2022-10-17T09:09:42;100731.25;;;13.12;82.42
27685;BME280;46113;50.130;8.526;2022-10-17T09:12:50;100741.28;;;12.85;80.94
27685;BME280;46113;50.130;8.526;2022-10-17T09:15:39;100743.19;;;13.02;81.20
27685;BME280;46113;50.130;8.526;2022-10-17T09:18:14;100736.63;;;13.11;79.96
27685;BME280;46113;50.130;8.526;2022-10-17T09:23:22;100749.16;;;13.28;80.77
27685;BME280;46113;50.130;8.526;2022-10-17T09:26:08;100742.25;;;13.24;79.97
27685;BME280;46113;50.130;8.526;2022-10-17T09:28:38;100741.88;;;13.12;80.27
27685;BME280;46113;50.130;8.526;2022-10-17T09:31:22;100747.44;;;13.27;80.99
27685;BME280;46113;50.130;8.526;2022-10-17T09:33:54;100738.53;;;13.28;81.06
27685;BME280;46113;50.130;8.526;2022-10-17T09:36:25;100748.53;;;13.42;80.05
27685;BME280;46113;50.130;8.526;2022-10-17T09:38:56;100749.88;;;13.32;78.85
27685;BME280;46113;50.130;8.526;2022-10-17T09:41:32;100743.56;;;13.34;79.31
27685;BME280;46113;50.130;8.526;2022-10-17T09:44:21;100764.78;;;13.55;79.22
27685;BME280;46113;50.130;8.526;2022-10-17T09:49:40;100751.31;;;13.77;78.00
27685;BME280;46113;50.130;8.526;2022-10-17T09:52:15;100750.59;;;13.74;77.60
27685;BME280;46113;50.130;8.526;2022-10-17T09:54:46;100757.94;;;14.07;77.18
27685;BME280;46113;50.130;8.526;2022-10-17T09:57:14;100774.16;;;14.01;78.29
27685;BME280;46113;50.130;8.526;2022-10-17T09:59:54;100772.56;;;14.16;76.29
27685;BME280;46113;50.130;8.526;2022-10-17T10:02:29;100777.44;;;14.25;75.65
27685;BME280;46113;50.130;8.526;2022-10-17T10:05:05;100785.91;;;14.34;75.13
27685;BME280;46113;50.130;8.526;2022-10-17T10:08:14;100773.53;;;14.33;74.61
27685;BME280;46113;50.130;8.526;2022-10-17T10:10:43;100764.75;;;14.83;73.98
27685;BME280;46113;50.130;8.526;2022-10-17T10:13:16;100761.16;;;14.84;73.97
27685;BME280;46113;50.130;8.526;2022-10-17T10:15:47;100767.81;;;14.93;72.44
27685;BME280;46113;50.130;8.526;2022-10-17T10:18:31;100784.56;;;14.95;72.00
27685;BME280;46113;50.130;8.526;2022-10-17T10:21:07;100785.91;;;15.04;72.09
27685;BME280;46113;50.130;8.526;2022-10-17T10:23:35;100783.75;;;15.29;70.60
27685;BME280;46113;50.130;8.526;2022-10-17T10:26:26;100791.78;;;15.11;70.71
27685;BME280;46113;50.130;8.526;2022-10-17T10:33:10;100775.53;;;15.49;70.42
27685;BME280;46113;50.130;8.526;2022-10-17T10:35:37;100781.94;;;15.95;68.95
27685;BME280;46113;50.130;8.526;2022-10-17T10:38:16;100783.66;;;16.12;67.34
27685;BME280;46113;50.130;8.526;2022-10-17T10:40:49;100782.19;;;16.23;66.94
27685;BME280;46113;50.130;8.526;2022-10-17T10:43:44;100783.34;;;16.33;66.12
27685;BME280;46113;50.130;8.526;2022-10-17T10:46:18;100778.53;;;16.40;65.93
27685;BME280;46113;50.130;8.526;2022-10-17T10:54:36;100768.81;;;16.84;64.57
27685;BME280;46113;50.130;8.526;2022-10-17T10:57:01;100775.13;;;17.27;64.14
27685;BME280;46113;50.130;8.526;2022-10-17T10:59:49;100783.53;;;17.50;62.81
27685;BME280;46113;50.130;8.526;2022-10-17T11:02:37;100775.91;;;17.43;62.59
27685;BME280;46113;50.130;8.526;2022-10-17T11:05:36;100779.72;;;17.25;63.00
27685;BME280;46113;50.130;8.526;2022-10-17T11:08:22;100771.97;;;17.34;61.64
27685;BME280;46113;50.130;8.526;2022-10-17T11:13:43;100778.03;;;17.24;60.61
27685;BME280;46113;50.130;8.526;2022-10-17T11:19:23;100780.78;;;17.51;59.91
27685;BME280;46113;50.130;8.526;2022-10-17T11:22:02;100781.34;;;17.71;60.69
27685;BME280;46113;50.130;8.526;2022-10-17T11:24:36;100777.31;;;18.06;59.17
27685;BME280;46113;50.130;8.526;2022-10-17T11:27:06;100777.72;;;18.27;58.45
27685;BME280;46113;50.130;8.526;2022-10-17T11:29:38;100773.69;;;18.07;59.70
27685;BME280;46113;50.130;8.526;2022-10-17T11:32:43;100774.03;;;18.15;58.42
27685;BME280;46113;50.130;8.526;2022-10-17T11:35:26;100776.78;;;18.69;57.92
27685;BME280;46113;50.130;8.526;2022-10-17T11:38:23;100781.59;;;19.02;57.45
27685;BME280;46113;50.130;8.526;2022-10-17T11:40:51;100786.63;;;18.94;55.80
27685;BME280;46113;50.130;8.526;2022-10-17T11:45:58;100784.00;;;19.83;55.00
27685;BME280;46113;50.130;8.526;2022-10-17T11:48:33;100787.38;;;20.23;53.18
27685;BME280;46113;50.130;8.526;2022-10-17T11:51:13;100789.78;;;20.39;52.00
27685;BME280;46113;50.130;8.526;2022-10-17T11:54:10;100788.34;;;20.94;50.35
27685;BME280;46113;50.130;8.526;2022-10-17T12:02:32;100786.63;;;23.13;45.19
27685;BME280;46113;50.130;8.526;2022-10-17T12:05:56;100783.69;;;24.28;42.20
27685;BME280;46113;50.130;8.526;2022-10-17T12:11:26;100766.28;;;24.70;42.15
27685;BME280;46113;50.130;8.526;2022-10-17T12:13:54;100752.84;;;26.01;39.69
27685;BME280;46113;50.130;8.526;2022-10-17T12:21:27;100766.03;;;25.68;40.41
27685;BME280;46113;50.130;8.526;2022-10-17T12:33:29;100762.47;;;25.67;39.04
27685;BME280;46113;50.130;8.526;2022-10-17T12:38:51;100765.09;;;26.68;39.28
27685;BME280;46113;50.130;8.526;2022-10-17T12:46:57;100761.44;;;26.51;37.63
27685;BME280;46113;50.130;8.526;2022-10-17T12:49:50;100764.19;;;24.15;41.44
27685;BME280;46113;50.130;8.526;2022-10-17T12:55:44;100769.38;;;23.77;43.48
27685;BME280;46113;50.130;8.526;2022-10-17T12:58:13;100775.72;;;23.46;43.38
27685;BME280;46113;50.130;8.526;2022-10-17T13:00:55;100768.47;;;23.15;45.56
27685;BME280;46113;50.130;8.526;2022-10-17T13:04:02;100765.69;;;23.27;44.03
27685;BME280;46113;50.130;8.526;2022-10-17T13:06:36;100768.19;;;23.19;44.50
27685;BME280;46113;50.130;8.526;2022-10-17T13:13:51;100759.31;;;24.48;42.49
27685;BME280;46113;50.130;8.526;2022-10-17T13:16:34;100768.09;;;25.28;39.82
27685;BME280;46113;50.130;8.526;2022-10-17T13:19:22;100758.16;;;25.74;40.80
27685;BME280;46113;50.130;8.526;2022-10-17T13:21:57;100763.69;;;25.83;38.92
27685;BME280;46113;50.130;8.526;2022-10-17T13:27:36;100757.31;;;27.00;38.30
27685;BME280;46113;50.130;8.526;2022-10-17T13:30:22;100760.25;;;27.06;36.81
27685;BME280;46113;50.130;8.526;2022-10-17T13:33:32;100761.47;;;27.12;36.98
27685;BME280;46113;50.130;8.526;2022-10-17T13:36:01;100765.19;;;25.39;40.11
27685;BME280;46113;50.130;8.526;2022-10-17T13:38:30;100771.53;;;27.28;37.33
27685;BME280;46113;50.130;8.526;2022-10-17T13:41:00;100772.84;;;28.35;35.41
27685;BME280;46113;50.130;8.526;2022-10-17T13:43:49;100765.03;;;29.22;33.92
27685;BME280;46113;50.130;8.526;2022-10-17T13:46:25;100769.81;;;30.54;31.93
27685;BME280;46113;50.130;8.526;2022-10-17T13:49:30;100775.88;;;29.70;32.55
27685;BME280;46113;50.130;8.526;2022-10-17T13:51:58;100766.88;;;28.57;34.17
27685;BME280;46113;50.130;8.526;2022-10-17T13:57:01;100767.03;;;28.47;34.90
27685;BME280;46113;50.130;8.526;2022-10-17T14:00:04;100767.94;;;27.62;35.44
27685;BME280;46113;50.130;8.526;2022-10-17T14:02:41;100772.06;;;26.97;36.41
27685;BME280;46113;50.130;8.526;2022-10-17T14:05:14;100780.06;;;27.85;35.18
27685;BME280;46113;50.130;8.526;2022-10-17T14:08:11;100778.06;;;26.56;35.69
27685;BME280;46113;50.130;8.526;2022-10-17T14:10:51;100779.72;;;26.12;36.95
27685;BME280;46113;50.130;8.526;2022-10-17T14:13:26;100778.31;;;26.26;37.33
27685;BME280;46113;50.130;8.526;2022-10-17T14:15:55;100771.72;;;26.11;37.37
27685;BME280;46113;50.130;8.526;2022-10-17T14:18:30;100776.41;;;25.06;39.09
27685;BME280;46113;50.130;8.526;2022-10-17T14:21:02;100780.47;;;25.58;37.95
27685;BME280;46113;50.130;8.526;2022-10-17T14:26:50;100781.84;;;24.09;41.45
27685;BME280;46113;50.130;8.526;2022-10-17T14:29:28;100783.09;;;22.49;43.72
27685;BME280;46113;50.130;8.526;2022-10-17T14:32:01;100783.81;;;22.51;44.01
27685;BME280;46113;50.130;8.526;2022-10-17T14:34:32;100778.25;;;22.85;44.55
27685;BME280;46113;50.130;8.526;2022-10-17T14:37:00;100781.06;;;22.08;45.93
27685;BME280;46113;50.130;8.526;2022-10-17T14:39:32;100790.50;;;22.03;46.11
27685;BME280;46113;50.130;8.526;2022-10-17T14:42:03;100786.06;;;21.35;47.99
27685;BME280;46113;50.130;8.526;2022-10-17T14:44:34;100794.34;;;21.09;49.12
27685;BME280;46113;50.130;8.526;2022-10-17T14:47:30;100794.03;;;21.25;48.88
27685;BME280;46113;50.130;8.526;2022-10-17T14:56:20;100802.25;;;20.51;51.32
27685;BME280;46113;50.130;8.526;2022-10-17T14:59:10;100806.66;;;20.17;51.76
27685;BME280;46113;50.130;8.526;2022-10-17T15:01:51;100812.28;;;20.01;52.83
27685;BME280;46113;50.130;8.526;2022-10-17T15:04:25;100817.09;;;20.08;52.41
27685;BME280;46113;50.130;8.526;2022-10-17T15:06:53;100810.84;;;20.08;53.03
27685;BME280;46113;50.130;8.526;2022-10-17T15:09:20;100811.25;;;19.90;53.56
27685;BME280;46113;50.130;8.526;2022-10-17T15:11:49;100818.53;;;19.88;53.82
27685;BME280;46113;50.130;8.526;2022-10-17T15:14:44;100828.00;;;19.81;54.23
27685;BME280;46113;50.130;8.526;2022-10-17T15:20:31;100837.63;;;19.46;55.43
27685;BME280;46113;50.130;8.526;2022-10-17T15:27:33;100832.06;;;20.00;54.78
27685;BME280;46113;50.130;8.526;2022-10-17T15:30:03;100834.50;;;20.03;54.49
27685;BME280;46113;50.130;8.526;2022-10-17T15:32:29;100826.97;;;20.08;54.70
27685;BME280;46113;50.130;8.526;2022-10-17T15:34:56;100820.06;;;20.17;54.31
27685;BME280;46113;50.130;8.526;2022-10-17T15:37:24;100828.56;;;20.10;54.72
27685;BME280;46113;50.130;8.526;2022-10-17T15:44:16;100826.75;;;20.11;54.58
27685;BME280;46113;50.130;8.526;2022-10-17T15:46:43;100825.16;;;20.08;54.91
27685;BME280;46113;50.130;8.526;2022-10-17T15:49:40;100823.56;;;20.06;55.00
27685;BME280;46113;50.130;8.526;2022-10-17T15:55:39;100833.72;;;19.89;55.67
27685;BME280;46113;50.130;8.526;2022-10-17T15:58:11;100829.19;;;19.90;56.51
27685;BME280;46113;50.130;8.526;2022-10-17T16:00:43;100845.19;;;19.78;56.76
27685;BME280;46113;50.130;8.526;2022-10-17T16:03:11;100849.72;;;19.65;57.09
27685;BME280;46113;50.130;8.526;2022-10-17T16:05:50;100842.31;;;19.55;57.37
27685;BME280;46113;50.130;8.526;2022-10-17T16:08:52;100845.53;;;19.48;57.32
27685;BME280;46113;50.130;8.526;2022-10-17T16:11:32;100847.81;;;19.15;58.80
27685;BME280;46113;50.130;8.526;2022-10-17T16:14:06;100853.59;;;19.09;58.47
27685;BME280;46113;50.130;8.526;2022-10-17T16:16:33;100856.59;;;19.04;58.84
27685;BME280;46113;50.130;8.526;2022-10-17T16:18:59;100857.41;;;19.04;59.09
27685;BME280;46113;50.130;8.526;2022-10-17T16:21:29;100862.38;;;18.98;60.37
27685;BME280;46113;50.130;8.526;2022-10-17T16:23:56;100859.44;;;18.88;60.54
27685;BME280;46113;50.130;8.526;2022-10-17T16:26:23;100862.66;;;18.80;60.10
27685;BME280;46113;50.130;8.526;2022-10-17T16:28:49;100868.06;;;18.65;61.04
27685;BME280;46113;50.130;8.526;2022-10-17T16:31:19;100864.06;;;18.45;62.31
27685;BME280;46113;50.130;8.526;2022-10-17T16:33:48;100870.59;;;18.41;62.90
27685;BME280;46113;50.130;8.526;2022-10-17T16:36:16;100861.34;;;18.32;63.73
27685;BME280;46113;50.130;8.526;2022-10-17T16:38:44;100869.28;;;18.19;64.68
27685;BME280;46113;50.130;8.526;2022-10-17T16:43:54;100868.00;;;17.83;65.84
27685;BME280;46113;50.130;8.526;2022-10-17T16:46:21;100872.84;;;17.91;65.60
27685;BME280;46113;50.130;8.526;2022-10-17T16:48:48;100873.25;;;17.70;65.96
27685;BME280;46113;50.130;8.526;2022-10-17T16:51:16;100879.41;;;17.72;66.09
27685;BME280;46113;50.130;8.526;2022-10-17T16:53:45;100883.03;;;17.71;66.30
27685;BME280;46113;50.130;8.526;2022-10-17T16:56:18;100888.47;;;17.55;66.56
27685;BME280;46113;50.130;8.526;2022-10-17T16:58:45;100898.63;;;17.33;67.45
27685;BME280;46113;50.130;8.526;2022-10-17T17:01:17;100898.06;;;17.28;67.57
27685;BME280;46113;50.130;8.526;2022-10-17T17:03:45;100898.13;;;17.12;67.89
27685;BME280;46113;50.130;8.526;2022-10-17T17:06:19;100901.81;;;17.09;68.34
27685;BME280;46113;50.130;8.526;2022-10-17T17:08:46;100898.41;;;17.07;68.85
27685;BME280;46113;50.130;8.526;2022-10-17T17:11:15;100898.72;;;17.17;68.82
27685;BME280;46113;50.130;8.526;2022-10-17T17:13:43;100903.69;;;17.24;68.84
27685;BME280;46113;50.130;8.526;2022-10-17T17:16:18;100906.16;;;17.12;68.94
27685;BME280;46113;50.130;8.526;2022-10-17T17:18:54;100907.66;;;17.16;68.57
27685;BME280;46113;50.130;8.526;2022-10-17T17:21:21;100914.25;;;17.11;68.82
27685;BME280;46113;50.130;8.526;2022-10-17T17:23:48;100912.34;;;17.13;68.99
27685;BME280;46113;50.130;8.526;2022-10-17T17:26:21;100920.19;;;17.16;68.88
27685;BME280;46113;50.130;8.526;2022-10-17T17:28:48;100919.47;;;16.98;69.89
27685;BME280;46113;50.130;8.526;2022-10-17T17:31:18;100923.13;;;16.80;70.73
27685;BME280;46113;50.130;8.526;2022-10-17T17:33:45;100920.56;;;16.79;70.75
27685;BME280;46113;50.130;8.526;2022-10-17T17:36:15;100917.59;;;16.84;70.60
27685;BME280;46113;50.130;8.526;2022-10-17T17:38:44;100924.09;;;16.79;71.27
27685;BME280;46113;50.130;8.526;2022-10-17T17:41:12;100922.19;;;16.81;71.31
27685;BME280;46113;50.130;8.526;2022-10-17T17:43:40;100918.63;;;16.81;71.52
27685;BME280;46113;50.130;8.526;2022-10-17T17:46:07;100927.69;;;16.78;72.07
27685;BME280;46113;50.130;8.526;2022-10-17T17:48:40;100931.28;;;16.61;72.51
27685;BME280;46113;50.130;8.526;2022-10-17T17:51:09;100928.47;;;16.64;72.63
27685;BME280;46113;50.130;8.526;2022-10-17T17:53:36;100928.31;;;16.67;72.21
27685;BME280;46113;50.130;8.526;2022-10-17T17:56:14;100938.19;;;16.65;72.40
27685;BME280;46113;50.130;8.526;2022-10-17T17:58:43;100933.13;;;16.61;72.52
27685;BME280;46113;50.130;8.526;2022-10-17T18:01:16;100937.59;;;16.60;72.41
27685;BME280;46113;50.130;8.526;2022-10-17T18:03:46;100937.78;;;16.57;72.23
27685;BME280;46113;50.130;8.526;2022-10-17T18:06:14;100936.22;;;16.37;72.91
27685;BME280;46113;50.130;8.526;2022-10-17T18:08:46;100944.69;;;16.45;72.57
27685;BME280;46113;50.130;8.526;2022-10-17T18:11:12;100945.47;;;16.31;73.43
27685;BME280;46113;50.130;8.526;2022-10-17T18:13:45;100949.94;;;16.31;73.12
27685;BME280;46113;50.130;8.526;2022-10-17T18:16:12;100944.75;;;16.27;73.06
27685;BME280;46113;50.130;8.526;2022-10-17T18:18:41;100960.16;;;16.22;73.39
27685;BME280;46113;50.130;8.526;2022-10-17T18:21:10;100962.41;;;16.14;74.00
27685;BME280;46113;50.130;8.526;2022-10-17T18:23:37;100964.47;;;16.09;74.18
27685;BME280;46113;50.130;8.526;2022-10-17T18:26:04;100964.28;;;16.12;74.39
27685;BME280;46113;50.130;8.526;2022-10-17T18:28:35;100963.09;;;16.18;74.25
27685;BME280;46113;50.130;8.526;2022-10-17T18:31:08;100965.31;;;16.09;74.54
27685;BME280;46113;50.130;8.526;2022-10-17T18:33:35;100964.28;;;16.12;74.38
27685;BME280;46113;50.130;8.526;2022-10-17T18:36:04;100967.56;;;16.17;74.25
27685;BME280;46113;50.130;8.526;2022-10-17T18:38:32;100969.19;;;16.20;74.39
27685;BME280;46113;50.130;8.526;2022-10-17T18:41:13;100972.75;;;16.20;74.27
27685;BME280;46113;50.130;8.526;2022-10-17T18:43:42;100974.47;;;16.21;74.25
27685;BME280;46113;50.130;8.526;2022-10-17T18:46:14;100967.47;;;16.19;74.22
27685;BME280;46113;50.130;8.526;2022-10-17T18:48:43;100968.50;;;16.16;73.98
27685;BME280;46113;50.130;8.526;2022-10-17T18:51:11;100970.66;;;16.09;74.34
27685;BME280;46113;50.130;8.526;2022-10-17T18:53:39;100975.03;;;16.10;74.55
27685;BME280;46113;50.130;8.526;2022-10-17T18:56:07;100973.41;;;16.08;74.38
27685;BME280;46113;50.130;8.526;2022-10-17T18:58:34;100975.03;;;15.94;75.02
27685;BME280;46113;50.130;8.526;2022-10-17T19:01:03;100972.50;;;15.91;74.79
27685;BME280;46113;50.130;8.526;2022-10-17T19:03:31;100969.69;;;15.94;74.98
27685;BME280;46113;50.130;8.526;2022-10-17T19:06:05;100972.44;;;15.93;74.95
27685;BME280;46113;50.130;8.526;2022-10-17T19:08:33;100968.19;;;15.88;75.04
27685;BME280;46113;50.130;8.526;2022-10-17T19:11:20;100971.09;;;15.84;75.03
27685;BME280;46113;50.130;8.526;2022-10-17T19:13:47;100968.03;;;15.74;75.15
27685;BME280;46113;50.130;8.526;2022-10-17T19:16:20;100967.19;;;15.73;75.47
27685;BME280;46113;50.130;8.526;2022-10-17T19:18:54;100972.94;;;15.66;75.94
27685;BME280;46113;50.130;8.526;2022-10-17T19:21:22;100959.41;;;15.69;75.99
27685;BME280;46113;50.130;8.526;2022-10-17T19:24:02;100962.25;;;15.66;75.95
27685;BME280;46113;50.130;8.526;2022-10-17T19:26:31;100962.09;;;15.69;76.26
27685;BME280;46113;50.130;8.526;2022-10-17T19:28:58;100961.25;;;15.68;76.38
27685;BME280;46113;50.130;8.526;2022-10-17T19:31:27;100957.78;;;15.66;76.30
27685;BME280;46113;50.130;8.526;2022-10-17T19:33:55;100956.06;;;15.65;76.63
27685;BME280;46113;50.130;8.526;2022-10-17T19:36:24;100957.84;;;15.64;76.47